createdAt,value
2022-09-28T00:01:52.149Z,9.20
2022-09-28T00:35:00.526Z,8.70
2022-09-28T00:37:27.393Z,8.70
2022-09-28T00:39:54.380Z,8.70
2022-09-28T00:42:23.888Z,8.80
2022-09-28T00:44:52.762Z,8.70
2022-09-28T00:47:39.224Z,8.80
2022-09-28T00:50:30.259Z,8.80
2022-09-28T01:13:21.393Z,9.00
2022-09-28T01:16:07.859Z,9.00
2022-09-28T01:18:55.833Z,9.00
2022-09-28T01:21:25.506Z,9.00
2022-09-28T01:24:11.846Z,9.00
2022-09-28T01:26:52.908Z,9.00
2022-09-28T01:33:12.447Z,9.00
2022-09-28T01:36:02.241Z,9.00
2022-09-28T01:38:34.781Z,9.00
2022-09-28T01:41:03.902Z,9.00
2022-09-28T01:43:38.033Z,9.00
2022-09-28T01:46:16.160Z,9.10
2022-09-28T02:04:20.859Z,9.00
2022-09-28T02:07:22.316Z,7.70
2022-09-28T02:09:59.652Z,12.40
2022-09-28T02:12:49.694Z,5.60
2022-09-28T02:15:23.649Z,13.40
2022-09-28T02:17:51.492Z,8.90
2022-09-28T02:23:15.938Z,5.80
2022-09-28T02:25:59.783Z,8.90
2022-09-28T02:28:27.087Z,8.90
2022-09-28T02:30:54.793Z,8.90
2022-09-28T02:33:28.066Z,9.00
2022-09-28T02:35:57.021Z,10.90
2022-09-28T02:38:25.549Z,8.90
2022-09-28T02:57:45.822Z,8.90
2022-09-28T03:00:23.859Z,8.80
2022-09-28T03:03:05.389Z,8.80
2022-09-28T03:05:52.417Z,8.80
2022-09-28T03:08:19.410Z,8.80
2022-09-28T03:11:03.974Z,8.80
2022-09-28T03:39:34.723Z,8.80
2022-09-28T03:42:02.205Z,8.80
2022-09-28T03:44:32.739Z,8.80
2022-09-28T03:47:01.504Z,8.80
2022-09-28T03:49:28.815Z,8.80
2022-09-28T03:51:55.607Z,8.80
2022-09-28T03:54:24.410Z,8.80
2022-09-28T04:01:56.849Z,8.90
2022-09-28T04:04:24.097Z,8.90
2022-09-28T04:06:51.079Z,8.20
2022-09-28T04:09:18.302Z,7.90
2022-09-28T04:12:02.762Z,4.40
2022-09-28T04:14:31.040Z,8.80
2022-09-28T04:16:58.059Z,9.90
2022-09-28T04:39:58.757Z,8.90
2022-09-28T04:42:26.121Z,8.90
2022-09-28T04:44:53.180Z,9.90
2022-09-28T04:47:19.943Z,8.80
2022-09-28T04:50:05.303Z,8.70
2022-09-28T04:52:36.508Z,8.70
2022-09-28T04:55:04.806Z,8.70
2022-09-28T05:01:29.645Z,8.80
2022-09-28T05:03:59.142Z,8.80
2022-09-28T05:06:34.353Z,8.80
2022-09-28T05:09:08.970Z,9.70
2022-09-28T05:11:36.191Z,8.80
2022-09-28T05:14:06.372Z,8.80
2022-09-28T05:16:33.905Z,8.80
2022-09-28T05:24:29.548Z,8.80
2022-09-28T05:26:56.525Z,8.70
2022-09-28T05:29:23.649Z,8.70
2022-09-28T05:32:11.204Z,8.50
2022-09-28T05:34:46.663Z,8.60
2022-09-28T05:37:23.383Z,8.60
2022-09-28T05:39:50.620Z,7.00
2022-09-28T05:45:00.188Z,8.60
2022-09-28T05:47:27.391Z,8.70
2022-09-28T05:49:54.828Z,8.60
2022-09-28T05:52:21.989Z,8.60
2022-09-28T05:54:49.129Z,8.60
2022-09-28T05:57:16.260Z,8.70
2022-09-28T05:59:46.841Z,8.70
2022-09-28T06:20:42.173Z,8.50
2022-09-28T06:23:13.869Z,8.60
2022-09-28T06:25:41.233Z,8.60
2022-09-28T06:28:13.798Z,8.30
2022-09-28T06:30:42.351Z,8.60
2022-09-28T06:33:13.957Z,8.50
2022-09-28T06:35:42.142Z,8.60
2022-09-28T06:56:10.084Z,8.50
2022-09-28T06:58:37.444Z,8.60
2022-09-28T07:01:05.731Z,8.60
2022-09-28T07:03:54.853Z,8.60
2022-09-28T07:06:47.061Z,8.60
2022-09-28T07:09:40.292Z,7.80
2022-09-28T07:12:22.588Z,8.00
2022-09-28T07:35:08.719Z,8.50
2022-09-28T07:38:03.061Z,8.50
2022-09-28T07:40:51.967Z,8.50
2022-09-28T07:43:20.979Z,8.50
2022-09-28T07:45:52.850Z,8.50
2022-09-28T07:48:20.695Z,8.60
2022-09-28T07:51:07.677Z,8.60
2022-09-28T08:09:24.870Z,9.00
2022-09-28T08:12:12.282Z,8.90
2022-09-28T08:14:56.584Z,7.60
2022-09-28T08:17:39.203Z,8.90
2022-09-28T08:20:27.457Z,8.80
2022-09-28T08:22:54.632Z,8.90
2022-09-28T08:30:27.321Z,9.00
2022-09-28T08:33:20.725Z,9.00
2022-09-28T08:36:06.819Z,9.60
2022-09-28T08:38:54.973Z,9.20
2022-09-28T08:41:43.809Z,9.20
2022-09-28T08:44:39.540Z,9.30
2022-09-28T08:51:35.400Z,8.80
2022-09-28T08:54:35.091Z,9.40
2022-09-28T08:57:27.668Z,9.40
2022-09-28T08:59:56.901Z,9.40
2022-09-28T09:02:36.189Z,9.40
2022-09-28T09:05:23.805Z,9.40
2022-09-28T09:14:18.834Z,10.30
2022-09-28T09:17:22.962Z,9.50
2022-09-28T09:20:36.892Z,9.60
2022-09-28T09:23:24.335Z,9.60
2022-09-28T09:25:54.428Z,9.60
2022-09-28T09:28:51.175Z,9.60
2022-09-28T09:36:52.913Z,9.70
2022-09-28T09:39:51.088Z,9.80
2022-09-28T09:43:06.210Z,9.80
2022-09-28T09:46:04.041Z,9.70
2022-09-28T09:48:47.458Z,9.70
2022-09-28T09:51:29.793Z,9.80
2022-09-28T09:59:12.869Z,10.80
2022-09-28T10:02:15.389Z,9.90
2022-09-28T10:05:12.580Z,10.00
2022-09-28T10:08:05.534Z,9.60
2022-09-28T10:10:50.267Z,9.10
2022-09-28T10:13:29.693Z,10.30
2022-09-28T10:30:28.515Z,10.50
2022-09-28T10:32:58.882Z,10.70
2022-09-28T10:35:40.150Z,10.80
2022-09-28T10:38:18.056Z,10.90
2022-09-28T10:40:55.364Z,11.00
2022-09-28T10:43:38.801Z,11.00
2022-09-28T10:53:39.410Z,11.00
2022-09-28T10:56:23.008Z,10.90
2022-09-28T10:58:59.396Z,10.90
2022-09-28T11:01:41.559Z,11.00
2022-09-28T11:04:21.460Z,11.00
2022-09-28T11:06:49.825Z,11.00
2022-09-28T11:09:30.985Z,11.00
2022-09-28T11:16:37.179Z,11.10
2022-09-28T11:19:26.695Z,11.10
2022-09-28T11:21:54.208Z,11.10
2022-09-28T11:24:26.644Z,11.10
2022-09-28T11:26:59.872Z,11.10
2022-09-28T11:29:41.098Z,11.10
2022-09-28T11:32:39.439Z,11.10
2022-09-28T11:38:24.280Z,11.00
2022-09-28T11:41:40.941Z,11.10
2022-09-28T11:44:29.502Z,11.10
2022-09-28T11:47:41.060Z,11.10
2022-09-28T11:50:22.977Z,11.10
2022-09-28T11:53:12.499Z,11.10
2022-09-28T12:01:24.029Z,11.10
2022-09-28T12:04:19.959Z,11.10
2022-09-28T12:06:52.717Z,11.20
2022-09-28T12:09:40.942Z,9.50
2022-09-28T12:12:30.956Z,13.00
2022-09-28T12:15:04.479Z,10.10
2022-09-28T12:20:44.815Z,8.80
2022-09-28T12:23:20.552Z,11.30
2022-09-28T12:26:01.266Z,11.30
2022-09-28T12:28:49.950Z,11.30
2022-09-28T12:31:37.508Z,11.30
2022-09-28T12:34:05.466Z,11.30
2022-09-28T12:42:28.545Z,11.50
2022-09-28T12:45:18.530Z,11.60
2022-09-28T12:48:12.517Z,11.60
2022-09-28T12:50:56.701Z,11.70
2022-09-28T12:53:48.737Z,11.80
2022-09-28T12:56:28.428Z,11.90
2022-09-28T13:05:16.420Z,12.10
2022-09-28T13:07:53.984Z,12.20
2022-09-28T13:10:45.487Z,12.30
2022-09-28T13:13:27.246Z,12.40
2022-09-28T13:16:19.093Z,12.40
2022-09-28T13:18:57.427Z,12.50
2022-09-28T13:26:47.011Z,12.60
2022-09-28T13:29:17.361Z,12.80
2022-09-28T13:31:59.290Z,12.80
2022-09-28T13:34:32.951Z,12.90
2022-09-28T13:37:18.525Z,12.90
2022-09-28T13:39:45.454Z,12.80
2022-09-28T13:48:11.180Z,12.60
2022-09-28T13:50:59.068Z,12.50
2022-09-28T13:53:30.800Z,12.40
2022-09-28T13:56:13.469Z,12.40
2022-09-28T13:58:52.921Z,12.40
2022-09-28T14:01:24.537Z,12.30
2022-09-28T14:06:47.494Z,8.30
2022-09-28T14:09:27.043Z,15.40
2022-09-28T14:12:01.935Z,12.40
2022-09-28T14:14:49.975Z,12.10
2022-09-28T14:17:23.506Z,11.80
2022-09-28T14:20:04.501Z,12.80
2022-09-28T14:25:59.392Z,12.20
2022-09-28T14:28:48.618Z,12.30
2022-09-28T14:31:25.740Z,12.40
2022-09-28T14:33:58.586Z,12.50
2022-09-28T14:36:57.680Z,12.60
2022-09-28T14:39:51.268Z,13.40
2022-09-28T15:06:02.222Z,12.60
2022-09-28T15:08:38.968Z,12.50
2022-09-28T15:11:10.893Z,13.40
2022-09-28T15:13:40.205Z,13.80
2022-09-28T15:16:11.601Z,12.60
2022-09-28T15:19:43.420Z,12.60
2022-09-28T17:00:58.089Z,10.60
2022-09-28T17:03:26.252Z,10.50
2022-09-28T17:05:54.818Z,10.40
2022-09-28T17:08:24.003Z,10.30
2022-09-28T17:11:13.914Z,10.30
2022-09-28T17:13:43.568Z,10.20
2022-09-28T17:16:17.178Z,9.80
2022-09-28T17:33:35.100Z,10.00
2022-09-28T17:36:04.602Z,9.60
2022-09-28T17:38:33.619Z,9.60
2022-09-28T17:41:00.494Z,9.40
2022-09-28T17:43:29.220Z,9.40
2022-09-28T17:45:56.242Z,9.40
2022-09-28T17:48:23.883Z,9.40
2022-09-28T18:37:30.807Z,9.50
2022-09-28T18:39:58.320Z,8.70
2022-09-28T18:42:25.805Z,8.60
2022-09-28T18:44:52.751Z,8.60
2022-09-28T18:47:20.757Z,8.60
2022-09-28T18:49:48.238Z,8.50
2022-09-28T18:52:15.377Z,8.50
2022-09-28T19:31:13.663Z,9.00
2022-09-28T19:33:41.298Z,8.30
2022-09-28T19:36:11.935Z,8.30
2022-09-28T19:38:40.129Z,8.30
2022-09-28T19:41:39.104Z,9.70
2022-09-28T19:44:09.029Z,8.30
2022-09-28T19:59:45.907Z,8.30
2022-09-28T20:02:14.426Z,8.30
2022-09-28T20:04:41.306Z,8.30
2022-09-28T20:07:08.602Z,8.10
2022-09-28T20:09:35.573Z,8.50
2022-09-28T20:12:03.137Z,8.40
2022-09-28T20:14:34.069Z,8.20
2022-09-28T20:21:59.075Z,5.10
2022-09-28T20:24:28.257Z,8.00
2022-09-28T20:26:55.449Z,8.20
2022-09-28T20:29:23.762Z,8.70
2022-09-28T20:31:51.300Z,8.30
2022-09-28T20:34:18.411Z,8.20
2022-09-28T20:36:45.408Z,8.30
